This is the latest recevied weather packets stored in our database for station/object KF4CQ. If no packets are shown the sender has not sent any weather packets the latest 10 day(s).
| Time | Temp. | Humidity | Pressure | Rain* | Wind** | Luminosity | Snow |
|---|---|---|---|---|---|---|---|
| 1777299630 | 26.11° C | 80% | 1018.1 hPa | 0 mm | - | 579 W/m² | - |
| 1777299328 | 25.56° C | 81% | 1018.1 hPa | 0 mm | - | 464 W/m² | - |
| 1777299025 | 25.56° C | 81% | 1018.1 hPa | 0 mm | - | 406 W/m² | - |
| 1777298722 | 24.44° C | 86% | 1018.2 hPa | 0 mm | - | 473 W/m² | - |
| 1777298418 | 25° C | 84% | 1018 hPa | 0 mm | - | 209 W/m² | - |
| 1777296902 | 23.33° C | 91% | 1017.4 hPa | 0 mm | - | 328 W/m² | - |
| 1777296268 | 23.33° C | 91% | 1017.4 hPa | 0 mm | - | 116 W/m² | - |
| 1777295964 | 22.78° C | 92% | 1017.5 hPa | 0 mm | - | 134 W/m² | - |
| 1777295662 | 22.78° C | 92% | 1017.5 hPa | 0 mm | - | 108 W/m² | - |
| 1777295359 | 22.78° C | 92% | 1017.5 hPa | 0 mm | - | 132 W/m² | - |
| 1777294753 | 22.78° C | 94% | 1017.4 hPa | 0 mm | - | 202 W/m² | - |
| 1777294146 | 21.67° C | 96% | 1017.4 hPa | 0 mm | - | 96 W/m² | - |
| 1777293538 | 21.67° C | 97% | 1017.3 hPa | 0 mm | - | 88 W/m² | - |
| 1777292932 | 21.11° C | 98% | 1017.1 hPa | 0 mm | - | 113 W/m² | - |
| 1777292628 | 21.11° C | 99% | 1017.2 hPa | 0 mm | - | 85 W/m² | - |
| 1777292324 | 20.56° C | 99% | 1017 hPa | 0 mm | - | 75 W/m² | - |
| 1777292021 | 20.56° C | 99% | 1017 hPa | 0 mm | - | 73 W/m² | - |
| 1777291718 | 20.56° C | 99% | 1017 hPa | 0 mm | - | 48 W/m² | - |
| 1777291111 | 20° C | 99% | 1016.9 hPa | 0 mm | - | 34 W/m² | - |
| 1777289289 | 20° C | 99% | 1016.2 hPa | 0 mm | - | 20 W/m² | - |
| 1777288986 | 20° C | 99% | 1016.3 hPa | 0 mm | - | 17 W/m² | - |
| 1777288683 | 20° C | 99% | 1016.2 hPa | 0 mm | - | 14 W/m² | - |
| 1777288380 | 20° C | 99% | 1016.2 hPa | 0 mm | - | 11 W/m² | - |
| 1777288076 | 20° C | 99% | 1016.1 hPa | 0 mm | - | 8 W/m² | - |
| 1777287773 | 20° C | 99% | 1016 hPa | 0 mm | - | 6 W/m² | - |
* Rain latest hour (hover to see other rain measurements)
** Current wind speed in m/s (hover to see current wind gust speed)